createdAt,value
2018-05-23T00:01:07.706Z,95198
2018-05-23T00:03:35.794Z,95192
2018-05-23T00:06:05.664Z,95205
2018-05-23T00:08:33.986Z,95206
2018-05-23T00:11:02.157Z,95202
2018-05-23T00:13:30.272Z,95196
2018-05-23T00:15:58.394Z,95196
2018-05-23T00:18:26.497Z,95197
2018-05-23T00:20:54.630Z,95196
2018-05-23T00:23:22.759Z,95211
2018-05-23T00:25:50.958Z,95205
2018-05-23T00:28:19.075Z,95197
2018-05-23T00:30:47.990Z,95196
2018-05-23T00:33:17.116Z,95197
2018-05-23T00:35:45.237Z,95196
2018-05-23T00:38:13.433Z,95195
2018-05-23T00:40:41.523Z,95182
2018-05-23T00:43:09.631Z,95204
2018-05-23T00:45:37.762Z,95198
2018-05-23T00:48:05.855Z,95206
2018-05-23T00:50:34.931Z,95202
2018-05-23T00:53:03.039Z,95206
2018-05-23T00:55:34.971Z,95205
2018-05-23T00:58:03.057Z,95203
2018-05-23T01:00:31.189Z,95204
2018-05-23T01:03:00.066Z,95211
2018-05-23T01:05:28.993Z,95218
2018-05-23T01:08:00.142Z,95215
2018-05-23T01:10:28.274Z,95222
2018-05-23T01:12:56.538Z,95210
2018-05-23T01:15:24.644Z,95210
2018-05-23T01:17:52.766Z,95219
2018-05-23T01:20:21.624Z,95213
2018-05-23T01:22:49.893Z,95224
2018-05-23T01:25:18.198Z,95225
2018-05-23T01:27:46.458Z,95216
2018-05-23T01:43:10.270Z,95248
2018-05-23T01:45:38.391Z,95240
2018-05-23T01:48:07.330Z,95257
2018-05-23T01:50:35.472Z,95257
2018-05-23T01:53:03.565Z,95259
2018-05-23T01:55:31.697Z,95253
2018-05-23T01:58:00.686Z,95265
2018-05-23T02:00:28.841Z,95253
2018-05-23T02:02:58.165Z,95256
2018-05-23T02:05:26.278Z,95262
2018-05-23T02:07:54.402Z,95266
2018-05-23T02:10:23.142Z,95266
2018-05-23T02:12:51.266Z,95273
2018-05-23T02:15:19.903Z,95266
2018-05-23T02:17:50.529Z,95276
2018-05-23T02:20:19.574Z,95275
2018-05-23T02:22:48.331Z,95263
2018-05-23T02:25:17.220Z,95270
2018-05-23T02:27:45.330Z,95265
2018-05-23T02:30:13.953Z,95276
2018-05-23T02:32:42.065Z,95271
2018-05-23T02:35:10.568Z,95268
2018-05-23T02:37:38.709Z,95269
2018-05-23T02:40:06.824Z,95270
2018-05-23T02:42:34.940Z,95272
2018-05-23T02:45:03.837Z,95270
2018-05-23T02:47:34.244Z,95288
2018-05-23T02:50:02.469Z,95278
2018-05-23T02:52:30.822Z,95277
2018-05-23T02:55:00.622Z,95282
2018-05-23T02:57:29.216Z,95288
2018-05-23T02:59:57.442Z,95287
2018-05-23T03:02:28.642Z,95287
2018-05-23T03:04:57.361Z,95291
2018-05-23T03:07:25.482Z,95289
2018-05-23T03:09:54.366Z,95300
2018-05-23T03:12:23.032Z,95304
2018-05-23T03:14:51.154Z,95315
2018-05-23T03:17:19.815Z,95315
2018-05-23T03:19:48.722Z,95314
2018-05-23T03:22:16.828Z,95314
2018-05-23T03:24:45.689Z,95305
2018-05-23T03:27:13.800Z,95317
2018-05-23T03:29:42.533Z,95326
2018-05-23T03:32:10.673Z,95322
2018-05-23T03:34:38.751Z,95318
2018-05-23T03:37:07.576Z,95319
2018-05-23T03:39:36.245Z,95317
2018-05-23T03:42:04.478Z,95324
2018-05-23T03:44:32.598Z,95321
2018-05-23T03:47:00.730Z,95322
2018-05-23T03:49:28.869Z,95324
2018-05-23T03:51:59.320Z,95333
2018-05-23T03:54:31.508Z,95334
2018-05-23T03:56:59.782Z,95330
2018-05-23T03:59:46.249Z,95337
2018-05-23T04:02:32.038Z,95331
2018-05-23T04:05:20.426Z,95339
2018-05-23T04:07:48.590Z,95342
2018-05-23T04:10:18.640Z,95339
2018-05-23T04:12:46.770Z,95334
2018-05-23T04:15:15.282Z,95342
2018-05-23T04:17:43.537Z,95340
2018-05-23T04:20:12.192Z,95334
2018-05-23T04:22:40.844Z,95340
2018-05-23T04:25:08.948Z,95353
2018-05-23T04:27:37.075Z,95348
2018-05-23T04:30:09.498Z,95356
2018-05-23T04:32:42.590Z,95362
2018-05-23T04:35:12.173Z,95352
2018-05-23T04:37:40.284Z,95357
2018-05-23T04:40:09.292Z,95357
2018-05-23T04:42:37.428Z,95357
2018-05-23T04:45:06.254Z,95362
2018-05-23T04:47:34.895Z,95362
2018-05-23T04:50:03.037Z,95374
2018-05-23T04:52:31.145Z,95372
2018-05-23T04:54:59.277Z,95378
2018-05-23T04:57:27.401Z,95371
2018-05-23T04:59:55.571Z,95387
2018-05-23T05:02:23.726Z,95380
2018-05-23T05:04:52.624Z,95389
2018-05-23T05:07:20.748Z,95389
2018-05-23T05:09:48.863Z,95391
2018-05-23T05:12:17.471Z,95391
2018-05-23T05:14:46.263Z,95388
2018-05-23T05:17:14.374Z,95397
2018-05-23T05:19:42.502Z,95406
2018-05-23T05:22:10.629Z,95399
2018-05-23T05:24:40.440Z,95409
2018-05-23T05:27:08.565Z,95405
2018-05-23T05:29:37.159Z,95410
2018-05-23T05:32:08.569Z,95411
2018-05-23T05:34:36.723Z,95413
2018-05-23T05:37:04.855Z,95415
2018-05-23T05:39:33.011Z,95423
2018-05-23T05:42:01.252Z,95414
2018-05-23T05:44:29.363Z,95420
2018-05-23T05:46:57.519Z,95422
2018-05-23T05:49:26.365Z,95431
2018-05-23T05:52:00.697Z,95432
2018-05-23T05:54:28.797Z,95423
2018-05-23T05:56:56.914Z,95432
2018-05-23T05:59:25.035Z,95426
2018-05-23T06:01:53.279Z,95434
2018-05-23T06:04:21.367Z,95438
2018-05-23T06:06:49.616Z,95434
2018-05-23T06:09:17.837Z,95433
2018-05-23T06:11:46.046Z,95440
2018-05-23T06:14:14.192Z,95439
2018-05-23T06:16:42.323Z,95435
2018-05-23T06:19:11.080Z,95442
2018-05-23T06:21:39.198Z,95435
2018-05-23T06:24:07.325Z,95439
2018-05-23T06:26:35.417Z,95440
2018-05-23T06:29:03.842Z,95437
2018-05-23T06:31:31.974Z,95450
2018-05-23T06:34:00.064Z,95446
2018-05-23T06:36:28.951Z,95441
2018-05-23T06:38:57.068Z,95440
2018-05-23T06:41:25.166Z,95439
2018-05-23T06:43:53.283Z,95446
2018-05-23T06:46:21.395Z,95446
2018-05-23T06:48:49.515Z,95450
2018-05-23T06:51:17.620Z,95459
2018-05-23T06:53:45.767Z,95452
2018-05-23T06:56:13.885Z,95463
2018-05-23T06:58:41.995Z,95452
2018-05-23T07:01:10.153Z,95460
2018-05-23T07:03:38.307Z,95465
2018-05-23T07:06:06.590Z,95467
2018-05-23T07:08:35.118Z,95459
2018-05-23T07:11:03.323Z,95466
2018-05-23T07:13:31.371Z,95465
2018-05-23T07:15:59.615Z,95461
2018-05-23T07:18:27.718Z,95469
2018-05-23T07:20:55.831Z,95474
2018-05-23T07:23:24.113Z,95470
2018-05-23T07:25:52.278Z,95479
2018-05-23T07:28:20.460Z,95473
2018-05-23T07:30:48.823Z,95474
2018-05-23T07:33:16.942Z,95469
2018-05-23T07:35:45.093Z,95475
2018-05-23T07:38:13.244Z,95471
2018-05-23T07:40:41.650Z,95482
2018-05-23T07:43:10.522Z,95484
2018-05-23T07:45:38.674Z,95476
2018-05-23T07:48:07.078Z,95485
2018-05-23T07:50:36.159Z,95482
2018-05-23T07:53:04.301Z,95481
2018-05-23T07:55:33.159Z,95481
2018-05-23T07:58:01.312Z,95474
2018-05-23T08:00:29.495Z,95482
2018-05-23T08:02:57.636Z,95470
2018-05-23T08:05:25.734Z,95474
2018-05-23T08:07:53.895Z,95470
2018-05-23T08:10:22.015Z,95468
2018-05-23T08:12:50.894Z,95471
2018-05-23T08:15:19.034Z,95471
2018-05-23T08:17:47.217Z,95466
2018-05-23T08:20:15.346Z,95465
2018-05-23T08:22:43.461Z,95466
2018-05-23T08:25:11.597Z,95469
2018-05-23T08:27:39.724Z,95466
2018-05-23T08:30:07.831Z,95463
2018-05-23T08:32:35.979Z,95463
2018-05-23T08:35:04.064Z,95469
2018-05-23T08:37:32.184Z,95472
2018-05-23T08:40:00.283Z,95470
2018-05-23T08:42:28.397Z,95461
2018-05-23T08:44:56.512Z,95474
2018-05-23T08:47:24.631Z,95471
2018-05-23T08:49:52.756Z,95476
2018-05-23T08:52:20.862Z,95474
2018-05-23T08:54:48.999Z,95469
2018-05-23T08:57:17.882Z,95473
2018-05-23T08:59:46.068Z,95472
2018-05-23T09:02:14.176Z,95476
2018-05-23T09:04:42.283Z,95471
2018-05-23T09:07:11.149Z,95476
2018-05-23T09:09:40.016Z,95481
2018-05-23T09:12:08.503Z,95480
2018-05-23T09:14:36.542Z,95482
2018-05-23T09:17:04.682Z,95487
2018-05-23T09:19:32.844Z,95495
2018-05-23T09:22:01.062Z,95484
2018-05-23T09:24:29.162Z,95469
2018-05-23T09:26:57.269Z,95468
2018-05-23T09:29:25.402Z,95471
2018-05-23T09:31:53.494Z,95484
2018-05-23T09:34:22.434Z,95490
2018-05-23T09:36:50.649Z,95493
2018-05-23T09:39:18.911Z,95487
2018-05-23T09:41:46.907Z,95481
2018-05-23T09:44:15.046Z,95482
2018-05-23T09:46:43.160Z,95481
2018-05-23T09:49:11.299Z,95487
2018-05-23T09:51:39.400Z,95481
2018-05-23T09:54:07.487Z,95485
2018-05-23T09:56:35.674Z,95494
2018-05-23T09:59:03.939Z,95493
2018-05-23T10:01:32.115Z,95488
2018-05-23T10:04:00.343Z,95483
2018-05-23T10:06:28.597Z,95476
2018-05-23T10:08:56.731Z,95484
2018-05-23T10:11:24.843Z,95477
2018-05-23T10:13:52.983Z,95483
2018-05-23T10:16:21.084Z,95485
2018-05-23T10:18:49.221Z,95476
2018-05-23T10:21:17.335Z,95478
2018-05-23T10:23:45.486Z,95478
2018-05-23T10:26:13.586Z,95471
2018-05-23T10:28:41.708Z,95474
2018-05-23T10:31:09.807Z,95466
2018-05-23T10:33:37.903Z,95471
2018-05-23T10:36:06.018Z,95471
2018-05-23T10:38:34.115Z,95474
2018-05-23T10:41:02.235Z,95475
2018-05-23T10:43:30.341Z,95473
2018-05-23T10:45:58.442Z,95479
2018-05-23T10:48:26.539Z,95476
2018-05-23T10:50:54.659Z,95474
2018-05-23T10:53:23.535Z,95477
2018-05-23T10:55:51.643Z,95477
2018-05-23T10:58:19.759Z,95472
2018-05-23T11:00:47.889Z,95472
2018-05-23T11:03:16.017Z,95461
2018-05-23T11:05:44.181Z,95470
2018-05-23T11:08:12.240Z,95462
2018-05-23T11:10:40.329Z,95466
2018-05-23T11:13:08.478Z,95464
2018-05-23T11:15:36.720Z,95469
2018-05-23T11:18:04.906Z,95468
2018-05-23T11:20:33.069Z,95466
2018-05-23T11:23:01.275Z,95471
2018-05-23T11:25:33.316Z,95468
2018-05-23T11:28:01.490Z,95473
2018-05-23T11:30:29.613Z,95464
2018-05-23T11:32:57.701Z,95463
2018-05-23T11:35:25.836Z,95461
2018-05-23T11:37:54.727Z,95453
2018-05-23T11:40:22.819Z,95454
2018-05-23T11:42:51.794Z,95449
2018-05-23T11:45:19.886Z,95439
2018-05-23T11:47:48.044Z,95444
2018-05-23T11:50:16.144Z,95444
2018-05-23T11:52:45.123Z,95441
2018-05-23T11:55:13.347Z,95446
2018-05-23T11:57:41.455Z,95442
2018-05-23T12:00:09.563Z,95442
2018-05-23T12:02:37.693Z,95435
2018-05-23T12:05:05.808Z,95445
2018-05-23T12:07:34.663Z,95437
2018-05-23T12:10:03.177Z,95441
2018-05-23T12:12:32.110Z,95434
2018-05-23T12:15:00.278Z,95439
2018-05-23T12:17:28.386Z,95442
2018-05-23T12:19:56.509Z,95439
2018-05-23T12:22:24.621Z,95434
2018-05-23T12:24:52.723Z,95435
2018-05-23T12:27:20.840Z,95432
2018-05-23T12:29:48.963Z,95432
2018-05-23T12:32:17.075Z,95433
2018-05-23T12:34:45.268Z,95427
2018-05-23T12:37:14.267Z,95425
2018-05-23T12:39:42.523Z,95421
2018-05-23T12:42:11.350Z,95420
2018-05-23T12:44:39.441Z,95418
2018-05-23T12:47:07.581Z,95416
2018-05-23T12:49:36.014Z,95408
2018-05-23T12:52:04.920Z,95411
2018-05-23T12:54:33.075Z,95415
2018-05-23T12:57:01.252Z,95413
2018-05-23T12:59:30.111Z,95409
2018-05-23T13:01:58.225Z,95408
2018-05-23T13:04:26.374Z,95404
2018-05-23T13:06:54.584Z,95404
2018-05-23T13:09:22.994Z,95407
2018-05-23T13:11:51.872Z,95407
2018-05-23T13:14:20.030Z,95402
2018-05-23T13:16:48.164Z,95399
2018-05-23T13:19:16.673Z,95400
2018-05-23T13:21:44.869Z,95405
2018-05-23T13:24:13.070Z,95404
2018-05-23T13:26:42.526Z,95402
2018-05-23T13:29:10.719Z,95406
2018-05-23T13:31:38.847Z,95391
2018-05-23T13:34:06.946Z,95397
2018-05-23T13:36:35.069Z,95384
2018-05-23T13:39:03.764Z,95380
2018-05-23T13:41:31.990Z,95385
2018-05-23T13:44:00.480Z,95383
2018-05-23T13:46:29.309Z,95371
2018-05-23T13:48:57.433Z,95368
2018-05-23T13:51:25.535Z,95369
2018-05-23T13:53:53.679Z,95370
2018-05-23T13:56:21.800Z,95368
2018-05-23T13:58:49.885Z,95358
2018-05-23T14:01:17.989Z,95365
2018-05-23T14:03:46.088Z,95360
2018-05-23T14:06:14.831Z,95355
2018-05-23T14:08:42.915Z,95349
2018-05-23T14:11:11.048Z,95359
2018-05-23T14:13:39.151Z,95371
2018-05-23T14:16:07.321Z,95363
2018-05-23T14:18:36.390Z,95361
2018-05-23T14:21:04.523Z,95355
2018-05-23T14:23:32.688Z,95350
2018-05-23T14:26:00.861Z,95350
2018-05-23T14:28:29.170Z,95350
2018-05-23T14:30:58.218Z,95348
2018-05-23T14:33:26.384Z,95340
2018-05-23T14:35:54.549Z,95336
2018-05-23T14:38:22.612Z,95333
2018-05-23T14:40:51.523Z,95340
2018-05-23T14:43:20.288Z,95337
2018-05-23T14:45:48.548Z,95337
2018-05-23T14:48:16.729Z,95340
2018-05-23T14:50:44.889Z,95344
2018-05-23T14:53:13.038Z,95341
2018-05-23T14:55:41.217Z,95353
2018-05-23T14:58:09.329Z,95352
2018-05-23T15:00:37.455Z,95355
2018-05-23T15:03:06.186Z,95360
2018-05-23T15:05:35.711Z,95378
2018-05-23T15:08:03.884Z,95371
2018-05-23T15:10:31.982Z,95378
2018-05-23T15:13:00.097Z,95387
2018-05-23T15:15:28.203Z,95381
2018-05-23T15:17:56.320Z,95377
2018-05-23T15:20:24.482Z,95385
2018-05-23T15:22:53.086Z,95381
2018-05-23T15:25:21.315Z,95384
2018-05-23T15:27:49.475Z,95381
2018-05-23T15:30:17.606Z,95386
2018-05-23T15:32:45.719Z,95388
2018-05-23T15:35:13.856Z,95384
2018-05-23T15:37:42.759Z,95386
2018-05-23T15:40:10.856Z,95390
2018-05-23T15:42:39.023Z,95381
2018-05-23T15:45:07.937Z,95387
2018-05-23T15:47:36.065Z,95386
2018-05-23T15:50:04.348Z,95385
2018-05-23T15:52:32.454Z,95382
2018-05-23T15:55:00.549Z,95387
2018-05-23T15:57:28.666Z,95386
2018-05-23T15:59:56.756Z,95379
2018-05-23T16:02:24.901Z,95381
2018-05-23T16:04:53.106Z,95374
2018-05-23T16:07:22.874Z,95379
2018-05-23T16:09:51.315Z,95379
2018-05-23T16:12:19.536Z,95378
2018-05-23T16:14:47.846Z,95376
2018-05-23T16:17:15.943Z,95379
2018-05-23T16:19:44.056Z,95377
2018-05-23T16:22:12.143Z,95378
2018-05-23T16:24:40.279Z,95391
2018-05-23T16:27:08.366Z,95377
2018-05-23T16:29:36.509Z,95379
2018-05-23T16:32:04.611Z,95379
2018-05-23T16:34:33.675Z,95380
2018-05-23T16:37:01.851Z,95385
2018-05-23T16:39:30.493Z,95384
2018-05-23T16:41:58.653Z,95382
2018-05-23T16:44:26.849Z,95382
2018-05-23T16:46:55.015Z,95382
2018-05-23T16:49:23.129Z,95390
2018-05-23T16:51:53.020Z,95375
2018-05-23T16:54:21.543Z,95384
2018-05-23T16:56:49.655Z,95391
2018-05-23T16:59:17.768Z,95385
2018-05-23T17:01:46.206Z,95388
2018-05-23T17:04:14.754Z,95386
2018-05-23T17:06:42.914Z,95391
2018-05-23T17:09:11.896Z,95393
2018-05-23T17:11:40.740Z,95393
2018-05-23T17:14:08.841Z,95388
2018-05-23T17:16:36.938Z,95398
2018-05-23T17:19:05.050Z,95404
2018-05-23T17:21:33.135Z,95397
2018-05-23T17:24:02.016Z,95394
2018-05-23T17:26:30.428Z,95401
2018-05-23T17:28:58.534Z,95405
2018-05-23T17:31:26.650Z,95413
2018-05-23T17:33:56.145Z,95409
2018-05-23T17:36:24.263Z,95409
2018-05-23T17:38:52.477Z,95407
2018-05-23T17:41:20.692Z,95401
2018-05-23T17:43:49.006Z,95401
2018-05-23T17:46:17.163Z,95400
2018-05-23T17:48:45.288Z,95399
2018-05-23T17:51:13.404Z,95409
2018-05-23T17:53:42.399Z,95406
2018-05-23T17:56:10.495Z,95437
2018-05-23T17:58:38.599Z,95441
2018-05-23T18:01:06.741Z,95446
2018-05-23T18:03:34.862Z,95458
2018-05-23T18:06:04.968Z,95464
2018-05-23T18:08:33.117Z,95474
2018-05-23T18:11:01.256Z,95489
2018-05-23T18:13:29.399Z,95485
2018-05-23T18:15:57.525Z,95474
2018-05-23T18:18:26.523Z,95486
2018-05-23T18:20:55.692Z,95511
2018-05-23T18:23:23.899Z,95513
2018-05-23T18:25:52.092Z,95515
2018-05-23T18:28:20.446Z,95517
2018-05-23T18:30:48.593Z,95515
2018-05-23T18:33:16.914Z,95515
2018-05-23T18:35:45.399Z,95522
2018-05-23T18:38:13.594Z,95531
2018-05-23T18:40:42.473Z,95523
2018-05-23T18:43:12.602Z,95508
2018-05-23T18:45:41.526Z,95517
2018-05-23T18:48:09.818Z,95505
2018-05-23T18:50:37.991Z,95504
2018-05-23T18:53:06.112Z,95512
2018-05-23T18:55:34.391Z,95503
2018-05-23T18:58:03.350Z,95499
2018-05-23T19:00:31.443Z,95489
2018-05-23T19:02:59.581Z,95486
2018-05-23T19:05:27.716Z,95478
2018-05-23T19:07:56.688Z,95473
2018-05-23T19:10:24.835Z,95476
2018-05-23T19:12:53.215Z,95474
2018-05-23T19:15:21.338Z,95462
2018-05-23T19:17:49.453Z,95470
2018-05-23T19:20:17.648Z,95469
2018-05-23T19:22:46.464Z,95468
2018-05-23T19:25:14.792Z,95465
2018-05-23T19:27:42.925Z,95468
2018-05-23T19:30:11.045Z,95468
2018-05-23T19:32:39.146Z,95463
2018-05-23T19:35:07.261Z,95463
2018-05-23T19:37:35.367Z,95459
2018-05-23T19:40:03.477Z,95466
2018-05-23T19:42:31.604Z,95472
2018-05-23T19:44:59.842Z,95476
2018-05-23T19:47:28.109Z,95479
2018-05-23T19:49:56.341Z,95485
2018-05-23T19:52:24.603Z,95484
2018-05-23T19:54:52.759Z,95483
2018-05-23T19:57:20.894Z,95483
2018-05-23T19:59:49.780Z,95480
2018-05-23T20:02:17.903Z,95481
2018-05-23T20:04:46.034Z,95487
2018-05-23T20:07:14.199Z,95489
2018-05-23T20:09:42.322Z,95488
2018-05-23T20:12:10.451Z,95493
2018-05-23T20:14:38.635Z,95493
2018-05-23T20:17:06.745Z,95503
2018-05-23T20:19:34.908Z,95505
2018-05-23T20:22:03.015Z,95498
2018-05-23T20:24:31.119Z,95512
2018-05-23T20:27:00.045Z,95507
2018-05-23T20:29:28.173Z,95500
2018-05-23T20:31:56.354Z,95510
2018-05-23T20:34:25.260Z,95499
2018-05-23T20:36:53.385Z,95493
2018-05-23T20:39:21.486Z,95501
2018-05-23T20:41:49.607Z,95504
2018-05-23T20:44:17.782Z,95512
2018-05-23T20:46:45.913Z,95506
2018-05-23T20:49:14.801Z,95508
2018-05-23T20:51:59.024Z,95508
2018-05-23T20:54:27.203Z,95503
2018-05-23T20:56:55.424Z,95506
2018-05-23T20:59:23.554Z,95507
2018-05-23T21:01:51.658Z,95510
2018-05-23T21:04:19.798Z,95513
2018-05-23T21:06:47.909Z,95508
2018-05-23T21:09:16.027Z,95505
2018-05-23T21:11:44.142Z,95519
2018-05-23T21:14:12.308Z,95506
2018-05-23T21:16:40.538Z,95505
2018-05-23T21:19:08.667Z,95507
2018-05-23T21:21:37.498Z,95507
2018-05-23T21:24:05.662Z,95507
2018-05-23T21:26:33.784Z,95503
2018-05-23T21:29:01.921Z,95509
2018-05-23T21:31:30.042Z,95507
2018-05-23T21:33:58.167Z,95508
2018-05-23T21:36:26.314Z,95506
2018-05-23T21:38:54.430Z,95511
2018-05-23T21:41:22.584Z,95501
2018-05-23T21:43:50.696Z,95510
2018-05-23T21:46:19.575Z,95506
2018-05-23T21:48:47.685Z,95513
2018-05-23T21:51:15.823Z,95513
2018-05-23T21:53:44.023Z,95509
2018-05-23T21:56:12.158Z,95513
2018-05-23T21:58:40.879Z,95517
2018-05-23T22:01:12.553Z,95516
2018-05-23T22:03:40.713Z,95513
2018-05-23T22:06:08.833Z,95519
2018-05-23T22:08:36.951Z,95512
2018-05-23T22:11:06.243Z,95515
2018-05-23T22:13:35.154Z,95515
2018-05-23T22:16:03.276Z,95526
2018-05-23T22:18:31.495Z,95517
2018-05-23T22:21:00.129Z,95524
2018-05-23T22:23:28.267Z,95517
2018-05-23T22:25:56.388Z,95509
2018-05-23T22:28:24.494Z,95513
2018-05-23T22:30:52.684Z,95514
2018-05-23T22:33:20.812Z,95513
2018-05-23T22:35:49.017Z,95520
2018-05-23T22:38:17.090Z,95513
2018-05-23T22:40:45.292Z,95516
2018-05-23T22:43:14.454Z,95513
2018-05-23T22:45:43.370Z,95508
2018-05-23T22:48:11.574Z,95510
2018-05-23T22:50:39.706Z,95518
2018-05-23T22:53:07.830Z,95511
2018-05-23T22:55:35.957Z,95516
2018-05-23T22:58:04.095Z,95518
2018-05-23T23:00:32.197Z,95526
2018-05-23T23:03:00.330Z,95516
2018-05-23T23:05:28.426Z,95507
2018-05-23T23:07:56.629Z,95504
2018-05-23T23:10:24.812Z,95513
2018-05-23T23:12:52.948Z,95515
2018-05-23T23:15:21.077Z,95508
2018-05-23T23:17:49.213Z,95513
2018-05-23T23:20:17.330Z,95511
2018-05-23T23:22:45.458Z,95516
2018-05-23T23:25:13.592Z,95511
2018-05-23T23:27:41.808Z,95515
2018-05-23T23:30:09.894Z,95505
2018-05-23T23:32:38.057Z,95514
2018-05-23T23:35:06.198Z,95503
2018-05-23T23:37:34.306Z,95505
2018-05-23T23:40:02.436Z,95505
2018-05-23T23:42:30.548Z,95499
2018-05-23T23:44:58.678Z,95497
2018-05-23T23:47:26.799Z,95496
2018-05-23T23:49:54.930Z,95499
2018-05-23T23:52:23.050Z,95502
2018-05-23T23:54:51.168Z,95503
2018-05-23T23:57:19.294Z,95506
2018-05-23T23:59:47.402Z,95504
